createdAt,value
2022-10-02T00:02:23.281Z,20.44
2022-10-02T00:04:49.793Z,20.43
2022-10-02T00:07:17.004Z,20.41
2022-10-02T00:09:43.348Z,20.41
2022-10-02T00:12:09.749Z,20.40
2022-10-02T00:14:36.083Z,20.41
2022-10-02T00:17:02.412Z,20.41
2022-10-02T00:19:28.747Z,20.40
2022-10-02T00:21:55.089Z,20.38
2022-10-02T00:24:21.410Z,20.37
2022-10-02T00:26:47.762Z,20.35
2022-10-02T00:29:14.974Z,20.37
2022-10-02T00:31:41.342Z,20.36
2022-10-02T00:34:09.087Z,20.34
2022-10-02T00:36:36.568Z,20.34
2022-10-02T00:39:03.116Z,20.36
2022-10-02T00:41:29.432Z,20.37
2022-10-02T00:43:55.772Z,20.35
2022-10-02T00:46:22.117Z,20.38
2022-10-02T00:48:48.489Z,20.37
2022-10-02T00:51:15.685Z,20.37
2022-10-02T00:53:41.998Z,20.39
2022-10-02T00:56:08.355Z,20.35
2022-10-02T00:58:34.687Z,20.36
2022-10-02T01:01:01.073Z,20.34
2022-10-02T01:03:27.437Z,20.37
2022-10-02T01:05:53.810Z,20.34
2022-10-02T01:08:20.985Z,20.35
2022-10-02T01:10:50.052Z,20.35
2022-10-02T01:13:16.389Z,20.33
2022-10-02T01:15:42.722Z,20.34
2022-10-02T01:18:09.926Z,20.33
2022-10-02T01:20:36.254Z,20.32
2022-10-02T01:23:02.581Z,20.32
2022-10-02T01:25:28.913Z,20.32
2022-10-02T01:27:55.296Z,20.31
2022-10-02T01:30:21.651Z,20.33
2022-10-02T01:32:47.994Z,20.32
2022-10-02T01:35:15.183Z,20.32
2022-10-02T01:37:41.510Z,20.31
2022-10-02T01:40:07.828Z,20.31
2022-10-02T01:42:34.292Z,20.31
2022-10-02T01:45:00.623Z,20.30
2022-10-02T01:47:26.954Z,20.30
2022-10-02T01:49:53.287Z,20.29
2022-10-02T01:52:19.598Z,20.27
2022-10-02T01:54:45.940Z,20.29
2022-10-02T01:57:13.116Z,20.26
2022-10-02T01:59:39.442Z,20.22
2022-10-02T02:02:05.851Z,20.24
2022-10-02T02:04:32.419Z,20.27
2022-10-02T02:06:58.743Z,20.24
2022-10-02T02:09:25.063Z,20.24
2022-10-02T02:11:51.416Z,20.25
2022-10-02T02:14:18.629Z,20.23
2022-10-02T02:16:45.041Z,20.23
2022-10-02T02:19:11.564Z,20.21
2022-10-02T02:21:37.884Z,20.23
2022-10-02T02:24:04.248Z,20.24
2022-10-02T02:26:30.733Z,20.23
2022-10-02T02:28:57.059Z,20.22
2022-10-02T02:31:23.423Z,20.21
2022-10-02T02:33:49.784Z,20.18
2022-10-02T02:36:16.986Z,20.20
2022-10-02T02:38:43.299Z,20.19
2022-10-02T02:43:35.914Z,20.20
2022-10-02T02:46:02.357Z,20.20
2022-10-02T02:48:28.724Z,20.23
2022-10-02T02:50:55.059Z,20.21
2022-10-02T02:53:21.420Z,20.21
2022-10-02T02:55:47.765Z,20.21
2022-10-02T02:58:14.073Z,20.22
2022-10-02T03:00:40.442Z,20.21
2022-10-02T03:03:06.840Z,20.25
2022-10-02T03:05:33.165Z,20.24
2022-10-02T03:07:59.461Z,20.26
2022-10-02T03:10:25.838Z,20.25
2022-10-02T03:12:53.338Z,20.23
2022-10-02T03:15:20.537Z,20.21
2022-10-02T03:17:46.906Z,20.20
2022-10-02T03:20:13.239Z,20.22
2022-10-02T03:22:39.575Z,20.25
2022-10-02T03:25:05.899Z,20.22
2022-10-02T03:27:35.026Z,20.25
2022-10-02T03:30:01.651Z,20.25
2022-10-02T03:32:28.017Z,20.24
2022-10-02T03:34:54.323Z,20.22
2022-10-02T03:37:20.660Z,20.20
2022-10-02T03:39:47.014Z,20.20
2022-10-02T03:44:39.580Z,20.14
2022-10-02T03:47:05.927Z,20.18
2022-10-02T03:49:32.301Z,20.16
2022-10-02T03:51:58.634Z,20.14
2022-10-02T03:54:24.990Z,20.14
2022-10-02T03:56:51.311Z,20.15
2022-10-02T03:59:18.497Z,20.14
2022-10-02T04:01:48.926Z,20.15
2022-10-02T04:04:15.783Z,20.14
2022-10-02T04:06:42.119Z,20.13
2022-10-02T04:09:09.332Z,20.12
2022-10-02T04:11:35.685Z,20.13
2022-10-02T04:14:02.012Z,20.12
2022-10-02T04:16:28.411Z,20.15
2022-10-02T04:18:54.775Z,20.13
2022-10-02T04:21:21.105Z,20.13
2022-10-02T04:23:47.458Z,20.09
2022-10-02T04:26:14.672Z,20.11
2022-10-02T04:28:41.009Z,20.12
2022-10-02T04:31:07.388Z,20.10
2022-10-02T04:33:38.261Z,20.11
2022-10-02T04:36:04.815Z,20.10
2022-10-02T04:38:31.132Z,20.11
2022-10-02T04:40:57.447Z,20.11
2022-10-02T04:43:23.829Z,20.09
2022-10-02T04:45:50.207Z,20.11
2022-10-02T04:48:16.550Z,20.10
2022-10-02T04:50:42.890Z,20.10
2022-10-02T04:53:09.218Z,20.09
2022-10-02T04:55:35.552Z,20.08
2022-10-02T04:58:01.890Z,20.08
2022-10-02T05:00:28.265Z,20.08
2022-10-02T05:02:54.600Z,20.07
2022-10-02T05:05:20.934Z,20.07
2022-10-02T05:07:48.142Z,20.07
2022-10-02T05:10:14.467Z,20.07
2022-10-02T05:12:40.805Z,20.07
2022-10-02T05:15:07.138Z,20.05
2022-10-02T05:17:33.469Z,20.06
2022-10-02T05:19:59.820Z,20.06
2022-10-02T05:22:26.209Z,20.07
2022-10-02T05:24:52.520Z,20.04
2022-10-02T05:27:18.851Z,20.05
2022-10-02T05:29:45.191Z,20.05
2022-10-02T05:32:11.524Z,20.08
2022-10-02T05:34:37.881Z,20.13
2022-10-02T05:37:04.219Z,20.14
2022-10-02T05:39:30.545Z,20.14
2022-10-02T05:41:56.888Z,20.07
2022-10-02T05:44:23.230Z,20.03
2022-10-02T05:46:49.579Z,19.99
2022-10-02T05:49:15.940Z,19.97
2022-10-02T05:51:42.294Z,20.00
2022-10-02T05:54:08.613Z,20.03
2022-10-02T05:56:35.257Z,20.02
2022-10-02T05:59:01.789Z,20.01
2022-10-02T06:01:28.261Z,20.01
2022-10-02T06:03:54.670Z,20.01
2022-10-02T06:06:21.924Z,20.00
2022-10-02T06:08:48.267Z,20.00
2022-10-02T06:11:15.449Z,20.00
2022-10-02T06:13:43.341Z,20.02
2022-10-02T06:16:10.113Z,20.01
2022-10-02T06:18:36.480Z,20.03
2022-10-02T06:21:02.778Z,20.03
2022-10-02T06:23:29.115Z,20.03
2022-10-02T06:25:55.508Z,20.04
2022-10-02T06:28:22.249Z,20.05
2022-10-02T06:30:51.759Z,20.06
2022-10-02T06:33:18.242Z,20.05
2022-10-02T06:35:45.439Z,20.07
2022-10-02T06:38:12.874Z,20.08
2022-10-02T06:40:39.481Z,20.07
2022-10-02T06:43:06.097Z,20.08
2022-10-02T06:45:33.588Z,20.07
2022-10-02T06:48:02.994Z,20.08
2022-10-02T06:50:29.693Z,20.07
2022-10-02T06:52:56.232Z,20.07
2022-10-02T06:55:22.987Z,20.07
2022-10-02T06:57:49.598Z,20.09
2022-10-02T07:00:16.156Z,20.09
2022-10-02T07:02:42.521Z,20.10
2022-10-02T07:05:08.868Z,20.12
2022-10-02T07:07:35.201Z,20.13
2022-10-02T07:10:01.596Z,20.14
2022-10-02T07:12:28.007Z,20.15
2022-10-02T07:14:54.333Z,20.13
2022-10-02T07:17:22.402Z,20.15
2022-10-02T07:19:48.872Z,20.18
2022-10-02T07:22:42.815Z,20.17
2022-10-02T07:25:02.490Z,20.18
2022-10-02T07:27:28.817Z,20.16
2022-10-02T07:29:55.162Z,20.15
2022-10-02T07:42:06.668Z,20.14
2022-10-02T07:44:32.988Z,20.15
2022-10-02T07:46:59.341Z,20.15
2022-10-02T07:49:25.815Z,20.17
2022-10-02T07:54:19.723Z,20.15
2022-10-02T07:59:12.656Z,20.13
2022-10-02T08:01:39.124Z,20.11
2022-10-02T08:04:05.596Z,20.08
2022-10-02T08:06:32.060Z,20.11
2022-10-02T08:08:58.537Z,20.11
2022-10-02T08:11:25.013Z,20.13
2022-10-02T08:13:51.502Z,20.15
2022-10-02T08:16:18.994Z,20.16
2022-10-02T08:18:45.481Z,20.16
2022-10-02T08:23:39.320Z,20.16
2022-10-02T08:26:07.019Z,20.18
2022-10-02T08:28:33.787Z,20.18
2022-10-02T08:31:00.624Z,20.17
2022-10-02T08:33:28.034Z,20.17
2022-10-02T08:35:55.417Z,20.20
2022-10-02T08:38:22.823Z,20.19
2022-10-02T08:40:50.248Z,20.19
2022-10-02T08:43:17.649Z,20.20
2022-10-02T08:45:45.097Z,20.21
2022-10-02T08:48:11.607Z,20.21
2022-10-02T08:50:38.059Z,20.20
2022-10-02T08:53:04.531Z,20.22
2022-10-02T08:55:31.906Z,20.24
2022-10-02T08:57:58.351Z,20.23
2022-10-02T09:00:24.805Z,20.22
2022-10-02T09:02:52.176Z,20.24
2022-10-02T09:05:18.647Z,20.24
2022-10-02T09:07:45.121Z,20.26
2022-10-02T09:10:11.554Z,20.29
2022-10-02T09:12:37.987Z,20.30
2022-10-02T09:15:04.437Z,20.31
2022-10-02T09:17:30.906Z,20.28
2022-10-02T09:19:57.503Z,20.23
2022-10-02T09:22:25.176Z,20.20
2022-10-02T09:24:51.597Z,20.18
2022-10-02T09:27:18.969Z,20.14
2022-10-02T09:29:45.409Z,20.10
2022-10-02T09:32:11.865Z,20.10
2022-10-02T09:34:39.175Z,20.28
2022-10-02T09:37:05.598Z,20.38
2022-10-02T09:39:33.902Z,20.43
2022-10-02T09:42:00.386Z,20.49
2022-10-02T09:44:27.652Z,20.48
2022-10-02T09:46:54.915Z,20.48
2022-10-02T09:49:22.181Z,20.44
2022-10-02T09:51:48.589Z,20.43
2022-10-02T09:54:16.866Z,20.49
2022-10-02T09:56:44.096Z,20.53
2022-10-02T09:59:12.382Z,20.53
2022-10-02T10:01:40.082Z,20.48
2022-10-02T10:04:09.031Z,20.45
2022-10-02T10:06:37.490Z,20.44
2022-10-02T10:09:04.116Z,20.43
2022-10-02T10:11:30.475Z,20.38
2022-10-02T10:13:56.886Z,20.31
2022-10-02T10:16:26.055Z,20.29
2022-10-02T10:18:53.291Z,20.31
2022-10-02T10:21:19.748Z,20.28
2022-10-02T10:23:46.960Z,20.22
2022-10-02T10:26:13.403Z,20.26
2022-10-02T10:28:40.116Z,20.20
2022-10-02T10:33:33.701Z,20.20
2022-10-02T10:36:00.095Z,20.22
2022-10-02T10:38:31.972Z,20.20
2022-10-02T10:40:58.302Z,20.13
2022-10-02T10:43:25.511Z,20.11
2022-10-02T10:45:52.714Z,20.08
2022-10-02T10:48:20.094Z,20.05
2022-10-02T10:50:46.414Z,20.04
2022-10-02T10:53:12.755Z,20.08
2022-10-02T10:55:39.098Z,20.08
2022-10-02T10:58:05.450Z,20.06
2022-10-02T11:00:31.780Z,20.00
2022-10-02T11:02:58.120Z,19.94
2022-10-02T11:05:24.522Z,19.91
2022-10-02T11:07:50.870Z,19.87
2022-10-02T11:10:17.205Z,19.92
2022-10-02T11:12:44.412Z,19.90
2022-10-02T11:15:10.751Z,19.90
2022-10-02T11:17:37.124Z,19.86
2022-10-02T11:20:03.452Z,19.89
2022-10-02T11:22:29.794Z,19.92
2022-10-02T11:24:56.075Z,19.94
2022-10-02T11:27:22.583Z,19.90
2022-10-02T11:29:48.929Z,19.87
2022-10-02T11:32:15.282Z,19.93
2022-10-02T11:34:41.624Z,19.90
2022-10-02T11:37:07.953Z,19.89
2022-10-02T11:39:34.276Z,19.87
2022-10-02T11:42:00.605Z,19.82
2022-10-02T11:44:26.947Z,19.80
2022-10-02T11:46:53.275Z,19.75
2022-10-02T11:49:20.648Z,19.79
2022-10-02T11:51:46.995Z,19.81
2022-10-02T11:54:13.297Z,19.82
2022-10-02T11:56:39.645Z,19.83
2022-10-02T11:59:05.986Z,19.77
2022-10-02T12:01:32.325Z,19.73
2022-10-02T12:03:59.510Z,19.76
2022-10-02T12:06:25.875Z,19.77
2022-10-02T12:08:52.202Z,19.74
2022-10-02T12:11:19.411Z,19.70
2022-10-02T12:13:45.783Z,19.65
2022-10-02T12:16:12.161Z,19.67
2022-10-02T12:18:38.565Z,19.71
2022-10-02T12:21:04.898Z,19.68
2022-10-02T12:23:31.420Z,19.70
2022-10-02T12:25:57.754Z,19.69
2022-10-02T12:28:24.134Z,19.63
2022-10-02T12:30:50.497Z,19.64
2022-10-02T12:33:16.870Z,19.65
2022-10-02T12:35:43.236Z,19.64
2022-10-02T12:38:10.471Z,19.61
2022-10-02T12:40:36.843Z,19.60
2022-10-02T12:43:03.155Z,19.60
2022-10-02T12:45:29.517Z,19.58
2022-10-02T12:47:55.871Z,19.57
2022-10-02T12:50:22.202Z,19.55
2022-10-02T12:52:49.408Z,19.51
2022-10-02T12:55:15.740Z,19.51
2022-10-02T12:57:42.096Z,19.49
2022-10-02T13:00:08.431Z,19.46
2022-10-02T13:02:59.079Z,19.47
2022-10-02T13:05:21.304Z,19.47
2022-10-02T13:07:47.835Z,19.48
2022-10-02T13:10:14.167Z,19.48
2022-10-02T13:12:40.503Z,19.48
2022-10-02T13:15:06.821Z,19.47
2022-10-02T13:17:33.133Z,19.47
2022-10-02T13:19:59.460Z,19.46
2022-10-02T13:22:25.790Z,19.46
2022-10-02T13:24:52.145Z,19.45
2022-10-02T13:27:18.464Z,19.46
2022-10-02T13:29:44.779Z,19.45
2022-10-02T13:32:11.125Z,19.44
2022-10-02T13:34:38.641Z,19.39
2022-10-02T13:37:05.132Z,19.40
2022-10-02T13:39:31.455Z,19.40
2022-10-02T13:41:57.779Z,19.40
2022-10-02T13:44:24.131Z,19.39
2022-10-02T13:46:51.360Z,19.38
2022-10-02T13:49:18.570Z,19.39
2022-10-02T13:51:44.949Z,19.40
2022-10-02T13:54:12.317Z,19.39
2022-10-02T13:56:38.656Z,19.40
2022-10-02T13:59:05.887Z,19.39
2022-10-02T14:01:32.307Z,19.37
2022-10-02T14:03:58.722Z,19.38
2022-10-02T14:06:25.110Z,19.38
2022-10-02T14:08:51.474Z,19.37
2022-10-02T14:11:18.798Z,19.38
2022-10-02T14:13:45.106Z,19.35
2022-10-02T14:16:11.533Z,19.36
2022-10-02T14:18:37.867Z,19.36
2022-10-02T14:21:06.092Z,19.36
2022-10-02T14:23:32.434Z,19.36
2022-10-02T14:25:58.763Z,19.33
2022-10-02T14:28:26.080Z,19.31
2022-10-02T14:30:52.478Z,19.33
2022-10-02T14:33:18.956Z,19.31
2022-10-02T14:35:45.291Z,19.33
2022-10-02T14:38:12.494Z,19.35
2022-10-02T14:40:41.646Z,19.33
2022-10-02T14:43:07.996Z,19.33
2022-10-02T14:45:34.383Z,19.34
2022-10-02T14:48:00.725Z,19.32
2022-10-02T14:50:27.073Z,19.33
2022-10-02T14:52:53.375Z,19.32
2022-10-02T14:55:19.893Z,19.32
2022-10-02T14:57:46.224Z,19.32
2022-10-02T15:00:12.541Z,19.29
2022-10-02T15:02:38.915Z,19.28
2022-10-02T15:05:05.255Z,19.28
2022-10-02T15:07:31.563Z,19.27
2022-10-02T15:09:57.883Z,19.26
2022-10-02T15:12:24.277Z,19.26
2022-10-02T15:14:50.604Z,19.24
2022-10-02T15:17:17.029Z,19.25
2022-10-02T15:19:46.544Z,19.24
2022-10-02T15:22:16.929Z,19.23
2022-10-02T15:24:43.286Z,19.24
2022-10-02T15:27:09.658Z,19.23
2022-10-02T15:29:36.953Z,19.22
2022-10-02T15:32:04.283Z,19.24
2022-10-02T15:34:30.745Z,19.22
2022-10-02T15:36:57.121Z,19.21
2022-10-02T15:39:24.313Z,19.21
2022-10-02T15:41:50.668Z,19.20
2022-10-02T15:44:17.016Z,19.18
2022-10-02T15:46:43.533Z,19.18
2022-10-02T15:49:09.869Z,19.17
2022-10-02T15:51:36.210Z,19.17
2022-10-02T15:54:03.405Z,19.15
2022-10-02T15:56:29.718Z,19.15
2022-10-02T15:58:56.020Z,19.14
2022-10-02T16:01:22.336Z,19.13
2022-10-02T16:03:48.685Z,19.14
2022-10-02T16:06:15.061Z,19.11
2022-10-02T16:08:41.954Z,19.11
2022-10-02T16:11:09.197Z,19.09
2022-10-02T16:13:35.589Z,19.12
2022-10-02T16:16:02.007Z,19.11
2022-10-02T16:18:29.221Z,19.09
2022-10-02T16:20:55.599Z,19.08
2022-10-02T16:23:22.083Z,19.07
2022-10-02T16:25:51.409Z,19.06
2022-10-02T16:28:18.087Z,19.04
2022-10-02T16:30:44.548Z,19.01
2022-10-02T16:33:11.008Z,19.03
2022-10-02T16:35:41.393Z,19.08
2022-10-02T16:38:09.985Z,19.19
2022-10-02T16:40:36.510Z,19.29
2022-10-02T16:43:03.077Z,19.36
2022-10-02T16:45:29.487Z,19.40
2022-10-02T16:47:55.822Z,19.44
2022-10-02T16:50:22.185Z,19.51
2022-10-02T16:52:48.536Z,19.54
2022-10-02T16:55:14.954Z,19.55
2022-10-02T16:57:41.419Z,19.58
2022-10-02T17:00:07.844Z,19.63
2022-10-02T17:02:34.301Z,19.68
2022-10-02T17:05:00.671Z,19.70
2022-10-02T17:07:27.008Z,19.72
2022-10-02T17:09:53.337Z,19.75
2022-10-02T17:12:19.680Z,19.77
2022-10-02T17:14:46.340Z,19.79
2022-10-02T17:17:12.702Z,19.79
2022-10-02T17:19:39.301Z,19.80
2022-10-02T17:22:05.771Z,19.87
2022-10-02T17:24:32.170Z,19.84
2022-10-02T17:26:58.827Z,19.87
2022-10-02T17:29:25.368Z,19.89
2022-10-02T17:31:51.823Z,20.00
2022-10-02T17:34:18.332Z,20.20
2022-10-02T17:36:44.663Z,20.30
2022-10-02T17:39:11.022Z,20.38
2022-10-02T17:41:37.368Z,20.44
2022-10-02T17:44:03.693Z,20.51
2022-10-02T17:46:29.998Z,20.61
2022-10-02T17:48:56.372Z,20.66
2022-10-02T17:51:51.223Z,20.70
2022-10-02T17:54:09.310Z,20.75
2022-10-02T17:56:35.638Z,20.75
2022-10-02T17:59:01.936Z,20.78
2022-10-02T18:01:28.660Z,20.84
2022-10-02T18:03:55.297Z,20.87
2022-10-02T18:06:21.727Z,20.86
2022-10-02T18:08:48.090Z,20.96
2022-10-02T18:11:14.430Z,20.90
2022-10-02T18:13:41.292Z,20.99
2022-10-02T18:16:07.909Z,21.04
2022-10-02T18:18:34.346Z,20.96
2022-10-02T18:21:00.781Z,20.97
2022-10-02T18:23:27.168Z,21.06
2022-10-02T18:25:53.820Z,21.09
2022-10-02T18:28:21.483Z,21.02
2022-10-02T18:30:47.955Z,20.86
2022-10-02T18:33:15.556Z,20.87
2022-10-02T18:35:42.132Z,21.01
2022-10-02T18:38:08.555Z,20.99
2022-10-02T18:40:34.919Z,21.00
2022-10-02T18:43:01.571Z,20.93
2022-10-02T18:45:28.019Z,20.88
2022-10-02T18:47:54.792Z,20.92
2022-10-02T18:50:22.092Z,20.92
2022-10-02T18:52:48.526Z,20.90
2022-10-02T18:55:15.158Z,20.90
2022-10-02T18:57:41.580Z,20.88
2022-10-02T19:00:08.212Z,20.84
2022-10-02T19:02:35.142Z,20.82
2022-10-02T19:05:01.613Z,20.79
2022-10-02T19:07:27.989Z,20.82
2022-10-02T19:09:54.349Z,20.78
2022-10-02T19:12:20.859Z,20.79
2022-10-02T19:14:47.282Z,20.79
2022-10-02T19:17:13.826Z,20.82
2022-10-02T19:19:40.263Z,20.77
2022-10-02T19:22:06.603Z,20.76
2022-10-02T19:24:32.921Z,20.74
2022-10-02T19:26:59.256Z,20.79
2022-10-02T19:29:25.591Z,20.76
2022-10-02T19:31:52.013Z,20.78
2022-10-02T19:34:19.390Z,20.82
2022-10-02T19:36:45.877Z,20.84
2022-10-02T19:39:12.244Z,20.81
2022-10-02T19:41:38.802Z,20.81
2022-10-02T19:44:05.286Z,20.86
2022-10-02T19:46:31.628Z,20.87
2022-10-02T19:48:57.963Z,20.86
2022-10-02T19:51:24.321Z,20.88
2022-10-02T19:53:50.673Z,20.89
2022-10-02T19:56:17.004Z,20.85
2022-10-02T19:58:43.355Z,20.87
2022-10-02T20:01:09.748Z,20.88
2022-10-02T20:03:36.147Z,20.84
2022-10-02T20:06:02.488Z,20.81
2022-10-02T20:08:28.828Z,20.78
2022-10-02T20:10:55.168Z,20.84
2022-10-02T20:13:21.570Z,20.80
2022-10-02T20:15:47.917Z,20.79
2022-10-02T20:18:14.713Z,20.81
2022-10-02T20:20:41.096Z,20.83
2022-10-02T20:23:07.428Z,20.78
2022-10-02T20:25:33.753Z,20.75
2022-10-02T20:28:00.171Z,20.74
2022-10-02T20:30:26.562Z,20.94
2022-10-02T20:32:52.954Z,21.05
2022-10-02T20:35:19.263Z,21.08
2022-10-02T20:37:45.578Z,21.10
2022-10-02T20:40:12.001Z,21.07
2022-10-02T20:42:38.306Z,21.06
2022-10-02T20:45:04.686Z,21.15
2022-10-02T20:47:30.979Z,21.16
2022-10-02T20:49:57.270Z,21.15
2022-10-02T20:52:23.582Z,20.99
2022-10-02T20:54:49.893Z,21.00
2022-10-02T20:57:16.229Z,21.01
2022-10-02T20:59:42.557Z,21.03
2022-10-02T21:02:08.966Z,21.09
2022-10-02T21:04:35.319Z,21.10
2022-10-02T21:07:06.730Z,21.04
2022-10-02T21:09:33.448Z,21.00
2022-10-02T21:11:59.769Z,20.86
2022-10-02T21:14:26.101Z,20.78
2022-10-02T21:16:54.453Z,20.72
2022-10-02T21:19:20.947Z,20.70
2022-10-02T21:21:50.450Z,20.64
2022-10-02T21:24:21.344Z,20.71
2022-10-02T21:26:48.571Z,20.65
2022-10-02T21:29:15.837Z,20.64
2022-10-02T21:31:42.167Z,20.65
2022-10-02T21:34:08.498Z,20.64
2022-10-02T21:36:35.128Z,20.61
2022-10-02T21:39:01.770Z,20.59
2022-10-02T21:41:28.104Z,20.60
2022-10-02T21:43:54.432Z,20.57
2022-10-02T21:46:20.801Z,20.58
2022-10-02T21:48:47.182Z,20.58
2022-10-02T21:51:13.530Z,20.61
2022-10-02T21:53:39.873Z,20.56
2022-10-02T21:56:06.223Z,20.56
2022-10-02T21:58:32.541Z,20.54
2022-10-02T22:00:58.907Z,20.56
2022-10-02T22:03:25.242Z,20.52
2022-10-02T22:05:51.671Z,20.49
2022-10-02T22:08:18.109Z,20.43
2022-10-02T22:10:47.194Z,20.46
2022-10-02T22:13:13.519Z,20.44
2022-10-02T22:15:39.866Z,20.41
2022-10-02T22:18:06.315Z,20.41
2022-10-02T22:20:32.596Z,20.42
2022-10-02T22:22:58.936Z,20.42
2022-10-02T22:25:25.262Z,20.38
2022-10-02T22:27:51.604Z,20.34
2022-10-02T22:30:17.983Z,20.34
2022-10-02T22:32:47.089Z,20.34
2022-10-02T22:35:13.532Z,20.33
2022-10-02T22:37:42.619Z,20.30
2022-10-02T22:40:08.949Z,20.28
2022-10-02T22:42:35.270Z,20.30
2022-10-02T22:45:01.582Z,20.28
2022-10-02T22:47:27.903Z,20.23
2022-10-02T22:49:54.211Z,20.17
2022-10-02T22:52:20.531Z,20.10
2022-10-02T22:54:46.832Z,20.12
2022-10-02T22:57:13.152Z,20.10
2022-10-02T22:59:39.444Z,20.11
2022-10-02T23:02:06.011Z,20.15
2022-10-02T23:04:32.429Z,20.15
2022-10-02T23:06:58.763Z,20.12
2022-10-02T23:09:25.076Z,20.11
2022-10-02T23:11:51.379Z,20.11
2022-10-02T23:14:17.742Z,20.11
2022-10-02T23:16:44.047Z,20.09
2022-10-02T23:19:10.525Z,20.08
2022-10-02T23:21:38.398Z,20.08
2022-10-02T23:24:06.283Z,20.08
2022-10-02T23:26:32.594Z,20.05
2022-10-02T23:28:58.905Z,20.04
2022-10-02T23:31:25.253Z,20.03
2022-10-02T23:33:51.608Z,20.02
2022-10-02T23:36:17.951Z,20.02
2022-10-02T23:38:44.247Z,19.99
2022-10-02T23:41:10.576Z,19.97
2022-10-02T23:43:36.869Z,20.02
2022-10-02T23:46:03.247Z,20.01
2022-10-02T23:48:29.606Z,20.00
2022-10-02T23:50:55.925Z,19.99
2022-10-02T23:53:22.247Z,20.01
2022-10-02T23:55:48.520Z,19.99
2022-10-02T23:58:14.857Z,19.99
